AirNav   Everest Fuels
 
 961 users online  

WV01 Lee Massey Airport
Ansted, West Virginia, USA

GOING TO ANSTED?


FAA INFORMATION EFFECTIVE 31 DECEMBER 2020

Location

FAA Identifier: WV01
Lat/Long: 38-07-45.3940N 081-03-13.3650W
38-07.756567N 081-03.222750W
38.1292761,-81.0537125
(estimated)
Elevation: 1665 ft. / 507.5 m (surveyed)
Variation: 06W (1985)
From city: 2 miles E of ANSTED, WV
Time zone: UTC -5 (UTC -4 during Daylight Saving Time)
Zip code: 25938

Airport Operations

Airport use: Private use. Permission required prior to landing
Activation date: 10/1957
Control tower: no
ARTCC: INDIANAPOLIS CENTER
FSS: ELKINS FLIGHT SERVICE STATION [703-724-4288]
Attendance: UNATNDD
Wind indicator: no
Segmented circle: no

Nearby radio navigation aids

VOR radial/distance  VOR name  Freq  Var
RNLr312/(14.9)RAINELLE VOR116.6004W
BKWr015/21.2BECKLEY VOR/DME117.7006W
LWBr305/35.1GREENBRIER VOR/DME116.0508W
HVQr114/36.2CHARLESTON VOR/DME117.4003W

Airport Services

Airframe service: NONE
Powerplant service: NONE

Runway Information

Runway 16/34

Dimensions: 1500 x 200 ft. / 457 x 61 m
Surface: turf
RUNWAY 16  RUNWAY 34
Traffic pattern: leftleft

Runway 7/25

Dimensions: 1300 x 150 ft. / 396 x 46 m
Surface: turf/dirt
RUNWAY 7  RUNWAY 25
Traffic pattern: leftleft

Airport Ownership and Management from official FAA records

Ownership: Privately-owned
Owner: G. LEE MASSEY
22491 MIDLAND TRL
VICTOR, WV 25938-7613
Phone 304-658-4948
Manager: G. LEE MASSEY
22491 MIDLAND TRL
VICTOR, WV 25938-7613
Phone 304-658-4948

Additional Remarks

A52-16 FENCE ON END OF 16-34, USE THIS RWY FM N ONLY.
FOR CD CTC CHARLESTON APCH AT 304-344-5867 EXT 281

Instrument Procedures

There are no published instrument procedures at WV01.

Some nearby airports with instrument procedures:

KSXL - Summersville Airport (11 nm NE)
KBKW - Raleigh County Memorial Airport (21 nm S)
KCRW - Yeager Airport (29 nm NW)
KLWB - Greenbrier Valley Airport (35 nm SE)
48I - Braxton County Airport (38 nm NE)
 
Loc | Ops | Rwys | IFR | FBO | Links
Com | Nav | Svcs | Stats | Notes
Area around WV01 (Lee Massey Airport)
 
Road maps at: MapQuest Bing Google
 
Aerial photo
No photo
 
Sectional chart

 
Airport distance calculator
Flying to Lee Massey Airport? Find the distance to fly.

From to WV01

Sunrise and sunset
Times for 18-Jan-2021
 Local
(UTC-5)
 Zulu
(UTC)
Morning civil twilight07:1112:11
Sunrise07:3912:39
Sunset17:3022:30
Evening civil twilight17:5922:59

Current date and time
Zulu (UTC)  18-Jan-2021 14:21:30
Local (UTC-5)  18-Jan-2021 09:21:30
 
METAR
KBKW 
20nm S 
181402Z AUTO 26010KT 6SM -SN BR SCT011 BKN017 OVC029 M03/M04 A2983 RMK AO2 P0000 T10281044 TSNO
KCRW 
29nm NW 
181354Z 25005KT 9SM -SN FEW018 BKN028 OVC034 00/M03 A2991 RMK AO2 SLP134 P0000 T00001028 $
KLWB 
35nm SE 
181355Z 25005KT 2SM SN SCT006 BKN017 OVC023 M03/M04 A2982
KI16 
40nm SW 
181355Z AUTO 10SM -SN 00/M01 A2993 RMK AO2 T00001015
TAF
KBKW 
20nm S 
181127Z 1812/1912 23007KT 6SM BR OVC022 TEMPO 1812/1814 1SM -SHSN OVC005 FM181400 24009G16KT 4SM -SHSN BR OVC015 FM182300 27007KT P6SM BKN018 FM190300 26008G14KT P6SM BKN015 FM191100 23006KT 3SM BR BKN011
NOTAMs
Click for the latest NOTAMs
NOTAMs are issued by the DoD/FAA and will open in a separate window not controlled by AirNav.

 

 
 

Would you like to see your business listed on this page?

 If your business provides an interesting product or service to pilots, flight crews, aircraft, or users of the Lee Massey Airport, you should consider listing it here.  To start the listing process, click on the button below
 
Add a business
 

Other Pages about Lee Massey Airport

Update a link
 
Copyright © AirNav, LLC. All rights reserved. Privacy Policy  Contact